Terminal Aerodrome Forecast
Issued by NWS

Home | Current Version | Previous Version | Text Only | Print | Product List | Glossary Off
Versions: 1 2 3 4 5 6 7 8 9 10 11 12 13 14 15 16

000
FTUS43 KGRB 251100 AAB
TAFATW
TAF AMD
KATW 251101Z 2511/2606 16005KT 6SM BR BKN009 OVC080
      TEMPO 2511/2512 29020G30KT 1SM TSRA SCT009 OVC018CB
     FM251300 19007KT 6SM BR BKN035
     FM251900 21010G16KT 6SM HZ SCT035 PROB30 2522/2601 5SM -TSRA
      OVC025CB=

USA.gov is the U.S. government's official web portal to all federal, state and local government web resources and services.